Time;durP1;ratioP1;P1;durP2;ratioP2;P2;SDS_P1;SDS_P2;PMS_P1;PMS_P2;Temp;Humidity;BMP_temperature;BMP_pressure;BME280_temperature;BME280_humidity;BME280_pressure;Samples;Min_cycle;Max_cycle;Signal;HPM_P1;HPM_P2
2021/03/02 00:02:31;;;;;;;44.38;23.70;;;;;;;-1.20;80.60;101862.36;1806297;79;21249;-61
2021/03/02 00:05:09;;;;;;;42.25;22.15;;;;;;;-1.23;80.62;101854.26;1806000;79;21217;-61
2021/03/02 00:07:42;;;;;;;41.58;22.55;;;;;;;-1.26;80.60;101849.59;1806340;79;21262;-61
2021/03/02 00:10:15;;;;;;;40.30;19.48;;;;;;;-1.28;80.73;101844.91;1804997;79;21206;-62
2021/03/02 00:12:49;;;;;;;40.23;22.05;;;;;;;-1.29;80.81;101842.80;1806347;79;21254;-61
2021/03/02 00:15:22;;;;;;;43.20;22.22;;;;;;;-1.27;80.94;101842.34;1752780;79;21272;-61
2021/03/02 00:17:57;;;;;;;43.92;20.85;;;;;;;-1.25;80.95;101841.88;1806290;79;21281;-61
2021/03/02 00:20:29;;;;;;;;;;;;;;;-1.24;81.00;101840.98;1807276;79;21171;-62
2021/03/02 00:23:15;;;;;;;37.70;19.05;;;;;;;-1.23;80.98;101834.98;1777661;79;20145;-61
2021/03/02 00:25:51;;;;;;;44.45;22.30;;;;;;;-1.22;81.05;101831.56;1804248;79;21273;-61
2021/03/02 00:28:26;;;;;;;38.88;20.45;;;;;;;-1.20;81.01;101833.66;1806132;79;21167;-61
2021/03/02 00:31:01;;;;;;;40.78;20.10;;;;;;;-1.23;80.92;101828.56;1805727;79;21258;-62
2021/03/02 00:33:34;;;;;;;41.25;21.02;;;;;;;-1.21;80.89;101829.81;1806260;79;21281;-61
2021/03/02 00:36:08;;;;;;;40.73;21.10;;;;;;;-1.22;80.85;101828.14;1805592;79;21273;-62
2021/03/02 00:38:43;;;;;;;42.17;21.12;;;;;;;-1.28;80.82;101827.78;1806276;79;21277;-62
2021/03/02 00:41:17;;;;;;;43.50;22.87;;;;;;;-1.29;80.88;101828.67;1805544;79;21175;-61
2021/03/02 00:43:53;;;;;;;41.37;21.30;;;;;;;-1.30;80.86;101825.68;1806236;79;21254;-62
2021/03/02 00:46:25;;;;;;;37.20;19.40;;;;;;;-1.29;80.98;101820.97;1805515;79;21183;-60
2021/03/02 00:48:58;;;;;;;39.65;20.23;;;;;;;-1.28;80.97;101821.79;1805717;79;21269;-61
2021/03/02 00:51:31;;;;;;;41.65;19.90;;;;;;;-1.27;81.00;101823.07;1805532;79;22458;-61
2021/03/02 00:54:06;;;;;;;39.80;19.05;;;;;;;-1.25;80.97;101821.32;1803484;79;21349;-61
2021/03/02 00:56:39;;;;;;;35.45;18.85;;;;;;;-1.23;81.00;101811.86;1795709;79;21178;-62
2021/03/02 00:59:12;;;;;;;39.05;19.15;;;;;;;-1.21;80.96;101815.68;1797573;80;21257;-62
2021/03/02 01:01:46;;;;;;;36.53;19.00;;;;;;;-1.19;80.95;101810.08;1796786;80;21179;-61
2021/03/02 01:04:20;;;;;;;34.65;18.07;;;;;;;-1.17;80.93;101804.05;1797578;80;21163;-61
2021/03/02 01:06:54;;;;;;;41.73;19.80;;;;;;;-1.16;80.80;101794.62;1766325;80;21143;-62
2021/03/02 01:09:28;;;;;;;35.05;17.27;;;;;;;-1.14;80.82;101800.15;1797420;80;21820;-62
2021/03/02 01:12:03;;;;;;;34.30;17.92;;;;;;;-1.13;80.73;101795.44;1796788;80;21824;-62
2021/03/02 01:14:38;;;;;;;33.90;18.42;;;;;;;-1.11;80.68;101796.25;1797796;80;21179;-61
2021/03/02 01:17:12;;;;;;;36.70;18.07;;;;;;;-1.11;80.61;101788.97;1789844;79;21280;-62
2021/03/02 01:19:45;;;;;;;34.92;18.42;;;;;;;-1.10;80.61;101787.65;1797662;79;21881;-61
2021/03/02 01:30:39;;;;;;;31.90;17.10;;;;;;;-1.06;80.50;101773.89;1787019;79;21628;-61
2021/03/02 01:33:12;;;;;;;30.85;16.23;;;;;;;-1.09;80.36;101774.38;1796001;80;21167;-61
2021/03/02 01:35:46;;;;;;;35.00;18.23;;;;;;;-1.14;80.28;101770.59;1796858;80;21305;-61
2021/03/02 05:43:16;;;;;;;18.52;9.35;;;;;;;7.43;63.43;101572.73;1774241;80;21186;-59
2021/03/02 05:45:50;;;;;;;19.25;10.95;;;;;;;8.38;60.00;101572.52;1769654;81;21259;-61
2021/03/02 05:48:24;;;;;;;14.05;7.72;;;;;;;9.02;58.25;101560.34;1787555;77;21300;-60
2021/03/02 05:50:58;;;;;;;13.15;8.03;;;;;;;9.72;56.91;101559.33;1798716;78;21834;-60
2021/03/02 06:01:52;;;;;;;10.20;6.17;;;;;;;11.05;49.54;101542.91;1798002;78;21165;-61
2021/03/02 06:04:26;;;;;;;10.63;5.78;;;;;;;10.94;47.64;101535.78;1796865;78;21388;-64
2021/03/02 06:07:06;;;;;;;15.15;7.83;;;;;;;10.77;47.60;101535.65;1769418;78;21330;-64
2021/03/02 06:09:39;;;;;;;12.43;5.67;;;;;;;10.90;47.56;101534.34;1804152;77;21169;-63
2021/03/02 06:12:13;;;;;;;9.50;5.55;;;;;;;11.15;47.22;101529.52;1791201;78;21118;-63
2021/03/02 06:14:46;;;;;;;8.48;5.62;;;;;;;11.31;46.04;101529.63;1785886;78;21281;-58
2021/03/02 06:17:23;;;;;;;10.03;6.87;;;;;;;11.60;45.59;101526.22;1790695;77;21178;-62
2021/03/02 06:19:56;;;;;;;8.18;4.80;;;;;;;11.84;44.16;101520.98;1768790;79;21308;-66
2021/03/02 06:22:36;;;;;;;9.50;5.60;;;;;;;12.06;43.33;101517.14;1790139;78;21312;-66
2021/03/02 06:25:27;;;;;;;7.58;3.98;;;;;;;11.77;42.87;101518.45;1800126;77;21318;-63
2021/03/02 06:28:01;;;;;;;8.95;5.67;;;;;;;11.02;42.21;101499.41;1798110;77;21269;-64
2021/03/02 06:30:36;;;;;;;10.55;5.97;;;;;;;10.30;43.69;101509.27;1805220;78;21280;-66
2021/03/02 06:33:18;;;;;;;10.00;5.17;;;;;;;9.92;44.11;101502.66;1763668;77;21240;-63
2021/03/02 06:35:51;;;;;;;7.65;3.80;;;;;;;9.55;44.11;101499.47;1793295;78;21269;-66
2021/03/02 06:38:34;;;;;;;7.17;4.53;;;;;;;9.15;45.17;101483.33;1799743;77;21177;-66
2021/03/02 06:41:07;;;;;;;11.93;5.33;;;;;;;9.08;45.88;101478.97;1798243;77;21207;-69
2021/03/02 06:43:41;;;;;;;5.42;2.80;;;;;;;9.32;45.98;101464.34;1802749;77;21289;-68
2021/03/02 06:46:14;;;;;;;18.07;9.40;;;;;;;9.76;45.68;101473.23;1793732;77;21291;-68
2021/03/02 06:49:00;;;;;;;8.80;3.40;;;;;;;10.36;44.50;101469.61;1770762;79;21882;-70
2021/03/02 06:51:36;;;;;;;12.05;3.55;;;;;;;10.91;42.75;101454.80;1755877;80;21240;-71
2021/03/02 06:54:24;;;;;;;7.40;4.40;;;;;;;11.35;42.33;101466.84;1761065;79;21351;-67
2021/03/02 06:57:03;;;;;;;7.37;3.15;;;;;;;11.90;41.26;101454.45;1765121;80;21310;-72
2021/03/02 06:59:36;;;;;;;10.23;5.08;;;;;;;12.48;39.94;101449.52;1762352;79;21323;-71
2021/03/02 07:02:09;;;;;;;10.88;5.53;;;;;;;12.81;38.99;101434.20;1758363;79;22251;-74
2021/03/02 07:04:42;;;;;;;9.53;5.65;;;;;;;12.93;38.21;101423.19;1755801;80;21730;-68
2021/03/02 07:07:17;;;;;;;5.97;3.50;;;;;;;12.64;37.78;101409.27;1759694;79;21323;-71
2021/03/02 07:09:51;;;;;;;8.23;5.10;;;;;;;12.13;38.96;101419.41;1760342;80;21178;-67
2021/03/02 07:12:26;;;;;;;6.05;4.75;;;;;;;11.69;39.52;101412.77;1764807;80;21180;-64
2021/03/02 07:19:11;;;;;;;7.22;4.28;;;;;;;10.90;40.49;101404.65;1754877;79;21139;-71
2021/03/02 07:21:58;;;;;;;6.92;3.80;;;;;;;10.28;41.88;101394.69;1737792;81;21315;-69
2021/03/02 07:24:27;;;;;;;7.67;3.40;;;;;;;9.87;42.42;101394.03;1760722;79;21723;-72
2021/03/02 07:27:02;;;;;;;5.40;2.55;;;;;;;9.27;42.75;101384.11;1796793;78;21254;-66
2021/03/02 07:29:41;;;;;;;6.87;3.52;;;;;;;8.63;44.05;101380.02;1795115;78;22095;-67
2021/03/02 07:32:16;;;;;;;4.75;3.50;;;;;;;8.08;45.19;101370.36;1794914;78;21618;-65
2021/03/02 07:34:49;;;;;;;7.45;3.67;;;;;;;7.70;46.36;101364.00;1795507;78;21272;-67
2021/03/02 07:37:23;;;;;;;4.55;2.37;;;;;;;7.42;47.10;101380.42;1804057;78;21808;-69
2021/03/02 07:40:07;;;;;;;;;;;;;;;7.19;47.96;101391.30;1799851;78;22323;-67
2021/03/02 07:42:42;;;;;;;9.30;5.53;;;;;;;7.04;48.53;101374.41;1762982;79;20358;-66
2021/03/02 07:45:18;;;;;;;7.50;3.87;;;;;;;6.77;49.13;101387.20;1758178;79;21463;-65
2021/03/02 07:47:56;;;;;;;12.25;7.58;;;;;;;6.62;49.60;101382.81;1775127;78;21179;-69
2021/03/02 07:50:34;;;;;;;7.22;4.45;;;;;;;6.50;50.11;101378.28;1744525;80;22174;-66
2021/03/02 07:53:22;;;;;;;4.47;3.10;;;;;;;6.43;50.64;101372.58;1797568;77;21360;-67
2021/03/02 07:56:24;;;;;;;6.05;2.80;;;;;;;6.35;50.64;101368.72;1795325;77;21984;-65
2021/03/02 07:59:16;;;;;;;4.80;2.52;;;;;;;6.21;50.85;101360.33;1780151;78;21175;-65
2021/03/02 08:02:23;;;;;;;3.83;2.20;;;;;;;6.03;51.50;101360.86;1778734;78;21433;-65
2021/03/02 08:04:55;;;;;;;5.87;3.70;;;;;;;5.85;51.96;101349.30;1771440;78;21270;-63
2021/03/02 08:07:30;;;;;;;2.50;2.17;;;;;;;5.62;52.35;101333.99;1766978;78;21871;-62
2021/03/02 08:10:07;;;;;;;5.72;2.67;;;;;;;5.41;52.91;101352.36;1773424;78;21344;-69
2021/03/02 08:12:43;;;;;;;3.95;2.50;;;;;;;5.28;53.29;101342.19;1787258;77;21304;-66
2021/03/02 08:15:22;;;;;;;3.08;2.22;;;;;;;5.15;53.89;101332.05;1799897;77;22676;-69
2021/03/02 08:18:17;;;;;;;3.05;2.10;;;;;;;5.02;54.22;101331.40;1782870;77;21289;-66
2021/03/02 08:21:18;;;;;;;2.95;1.95;;;;;;;4.93;54.88;101332.70;1785005;77;21824;-70
2021/03/02 08:23:57;;;;;;;4.58;2.25;;;;;;;4.87;55.30;101322.63;1786357;77;21233;-70
2021/03/02 08:26:37;;;;;;;4.20;2.95;;;;;;;4.81;55.64;101327.25;1789239;77;22322;-72
2021/03/02 08:29:24;;;;;;;3.77;2.25;;;;;;;4.80;56.05;101326.41;1787317;77;21266;-66
2021/03/02 08:31:58;;;;;;;3.85;2.37;;;;;;;4.82;56.27;101314.23;1792116;77;21853;-69
2021/03/02 08:34:33;;;;;;;5.70;2.40;;;;;;;4.81;56.17;101314.28;1776933;78;21299;-71
2021/03/02 08:37:12;;;;;;;3.52;2.37;;;;;;;4.78;56.56;101304.44;1749687;78;22230;-65
2021/03/02 08:39:55;;;;;;;3.17;1.87;;;;;;;4.82;56.60;101303.00;1736601;80;21225;-69
2021/03/02 08:42:28;;;;;;;3.33;2.20;;;;;;;4.82;56.99;101284.39;1776984;78;21385;-64
2021/03/02 08:45:10;;;;;;;4.30;2.35;;;;;;;4.89;57.05;101292.70;1731374;80;21743;-69
2021/03/02 08:47:43;;;;;;;5.45;3.00;;;;;;;5.00;57.19;101299.05;1788039;77;21192;-67
2021/03/02 08:50:17;;;;;;;3.95;2.40;;;;;;;5.02;56.84;101301.11;1784341;78;21272;-65
2021/03/02 08:52:51;;;;;;;11.38;3.33;;;;;;;4.99;57.10;101293.95;1771760;77;21280;-69
2021/03/02 08:55:27;;;;;;;5.03;3.05;;;;;;;4.95;57.11;101289.80;1801075;77;21883;-68
2021/03/02 08:58:02;;;;;;;4.37;2.83;;;;;;;4.88;57.37;101287.97;1794933;77;21193;-62
2021/03/02 09:00:35;;;;;;;4.72;2.80;;;;;;;4.84;57.43;101281.27;1775799;77;21636;-65
2021/03/02 09:03:10;;;;;;;4.53;2.52;;;;;;;4.85;57.56;101286.00;1806633;77;21220;-62
2021/03/02 09:05:44;;;;;;;4.65;2.05;;;;;;;4.83;57.55;101269.64;1807889;77;21121;-65
2021/03/02 09:08:19;;;;;;;4.45;2.80;;;;;;;4.75;57.85;101281.23;1803785;77;21843;-66
2021/03/02 09:10:55;;;;;;;;;;;;;;;4.71;58.06;101273.22;1805394;77;21291;-64
2021/03/02 09:13:38;;;;;;;4.50;2.98;;;;;;;4.66;58.22;101279.09;1798387;77;20282;-69
2021/03/02 09:16:34;;;;;;;6.55;4.12;;;;;;;4.62;58.64;101275.42;1727139;80;21723;-72
2021/03/02 09:19:19;;;;;;;6.70;3.95;;;;;;;4.66;58.89;101258.79;1799086;77;21286;-68
2021/03/02 09:22:05;;;;;;;5.97;3.20;;;;;;;4.68;58.93;101251.31;1799489;77;21288;-65
2021/03/02 09:24:44;;;;;;;4.95;2.70;;;;;;;4.71;59.11;101245.98;1805945;77;21217;-67
2021/03/02 09:27:21;;;;;;;4.28;3.00;;;;;;;4.75;58.86;101239.72;1796913;77;21366;-62
2021/03/02 09:29:55;;;;;;;5.37;3.72;;;;;;;4.70;58.71;101244.30;1817551;77;21270;-64
2021/03/02 09:32:28;;;;;;;;;;;;;;;4.67;59.12;101246.22;1720351;81;21337;-63
2021/03/02 09:35:07;;;;;;;4.33;2.80;;;;;;;4.68;59.13;101233.16;1796123;77;20286;-62
2021/03/02 09:37:40;;;;;;;6.97;4.30;;;;;;;4.68;59.42;101244.02;1774137;79;21310;-67
2021/03/02 09:40:15;;;;;;;9.75;5.80;;;;;;;4.70;59.30;101249.97;1782846;78;21308;-67
2021/03/02 09:42:57;;;;;;;16.95;9.55;;;;;;;4.68;59.22;101240.94;1784168;78;21280;-67
2021/03/02 09:45:31;;;;;;;6.08;4.08;;;;;;;4.66;59.46;101235.45;1733521;80;21349;-68
2021/03/02 09:48:08;;;;;;;4.05;2.85;;;;;;;4.65;59.59;101240.27;1750107;80;21236;-65
2021/03/02 09:50:42;;;;;;;4.17;2.77;;;;;;;4.64;59.77;101225.16;1811131;77;21283;-70
2021/03/02 09:53:18;;;;;;;4.65;2.70;;;;;;;4.62;59.74;101223.55;1805684;77;21287;-66
2021/03/02 09:55:51;;;;;;;4.58;3.20;;;;;;;4.57;59.97;101225.08;1801654;77;22150;-70
2021/03/02 09:58:25;;;;;;;3.70;2.90;;;;;;;4.53;59.96;101219.66;1802285;77;21814;-71
2021/03/02 10:01:03;;;;;;;7.15;4.45;;;;;;;4.47;60.08;101214.76;1798767;77;21288;-66
2021/03/02 10:03:38;;;;;;;7.08;4.12;;;;;;;4.40;60.30;101222.45;1804390;77;21271;-70
2021/03/02 10:06:12;;;;;;;6.17;3.37;;;;;;;4.37;60.56;101216.59;1803254;77;21295;-67
2021/03/02 10:08:45;;;;;;;;;;;;;;;4.37;60.83;101211.41;1744861;80;21208;-70
2021/03/02 10:11:23;;;;;;;6.65;4.30;;;;;;;4.39;60.85;101203.09;1781367;77;20274;-67
2021/03/02 10:14:02;;;;;;;7.33;4.15;;;;;;;4.36;61.09;101202.78;1803866;77;21347;-71
2021/03/02 10:17:10;;;;;;;6.65;4.12;;;;;;;4.37;61.08;101191.96;1712475;80;21178;-70
2021/03/02 10:20:24;;;;;;;9.25;5.15;;;;;;;4.35;61.27;101190.72;1722441;81;21273;-67
2021/03/02 10:23:04;;;;;;;5.97;3.90;;;;;;;4.32;61.38;101191.34;1748346;79;22228;-69
2021/03/02 10:25:43;;;;;;;8.88;4.47;;;;;;;4.32;61.51;101187.00;1768876;79;21345;-72
2021/03/02 10:28:18;;;;;;;14.70;7.97;;;;;;;4.34;61.74;101181.73;1741395;80;21161;-67
2021/03/02 10:30:51;;;;;;;10.32;6.12;;;;;;;4.37;61.90;101178.52;1766523;79;21719;-68
2021/03/02 10:33:24;;;;;;;7.80;5.15;;;;;;;4.40;61.87;101175.78;1730449;80;21316;-66
2021/03/02 10:36:00;;;;;;;7.28;4.87;;;;;;;4.41;61.94;101175.34;1731128;80;21331;-68
2021/03/02 10:38:34;;;;;;;8.65;5.60;;;;;;;4.40;61.94;101171.05;1755024;78;21376;-74
2021/03/02 10:41:07;;;;;;;6.72;4.83;;;;;;;4.41;62.09;101171.00;1795639;78;21307;-70
2021/03/02 10:43:41;;;;;;;8.53;5.08;;;;;;;4.41;62.05;101172.30;1812466;77;21303;-70
2021/03/02 10:46:20;;;;;;;10.58;4.75;;;;;;;4.37;61.96;101158.27;1803087;78;21327;-71
2021/03/02 10:48:54;;;;;;;7.80;5.53;;;;;;;4.30;62.19;101161.59;1803114;77;21307;-69
2021/03/02 10:51:29;;;;;;;10.08;5.58;;;;;;;4.26;62.45;101154.88;1795760;77;21557;-71
2021/03/02 10:54:02;;;;;;;6.00;4.45;;;;;;;4.27;62.61;101151.39;1807110;77;21261;-73
2021/03/02 10:56:38;;;;;;;7.42;5.40;;;;;;;4.27;62.67;101147.95;1799902;77;21293;-70
2021/03/02 10:59:12;;;;;;;10.10;5.78;;;;;;;4.24;62.77;101145.50;1792257;77;21280;-69
2021/03/02 11:01:46;;;;;;;9.38;5.85;;;;;;;4.18;63.01;101151.81;1736041;80;21307;-71
2021/03/02 11:04:21;;;;;;;7.83;5.80;;;;;;;4.17;63.21;101147.55;1799514;77;21305;-68
2021/03/02 11:06:55;;;;;;;8.93;6.12;;;;;;;4.13;63.38;101138.27;1796032;77;21173;-71
2021/03/02 11:09:28;;;;;;;12.07;7.10;;;;;;;4.09;63.60;101146.63;1802538;77;22150;-66
2021/03/02 11:12:02;;;;;;;9.30;6.47;;;;;;;4.12;63.83;101146.09;1803339;77;21692;-62
2021/03/02 11:14:36;;;;;;;9.40;5.90;;;;;;;4.15;63.94;101126.06;1800222;77;21812;-70
2021/03/02 11:17:09;;;;;;;9.15;6.60;;;;;;;4.19;64.00;101122.40;1802545;77;21784;-68
2021/03/02 11:19:44;;;;;;;10.25;6.83;;;;;;;4.18;64.05;101128.48;1794373;79;21720;-66
2021/03/02 11:22:17;;;;;;;12.90;7.15;;;;;;;4.15;64.26;101123.47;1804562;77;21268;-69
2021/03/02 11:24:52;;;;;;;10.93;7.20;;;;;;;4.21;64.40;101124.45;1798023;77;21276;-67
2021/03/02 11:27:26;;;;;;;9.33;6.70;;;;;;;4.20;64.39;101113.73;1796725;77;22349;-63
2021/03/02 11:29:58;;;;;;;;;;;;;;;4.18;64.62;101099.98;1774991;78;21161;-70
2021/03/02 11:32:33;;;;;;;14.03;8.18;;;;;;;4.16;64.69;101108.73;1762135;79;20687;-69
2021/03/02 11:35:08;;;;;;;12.90;7.35;;;;;;;4.10;64.97;101103.42;1769352;78;21308;-72
2021/03/02 11:37:44;;;;;;;12.73;7.58;;;;;;;4.13;65.05;101095.95;1798326;77;21195;-64
2021/03/02 11:40:19;;;;;;;14.78;8.43;;;;;;;4.14;65.07;101097.16;1801768;77;21339;-72
2021/03/02 11:42:56;;;;;;;15.35;9.20;;;;;;;4.15;65.30;101089.78;1809755;77;21244;-64
2021/03/02 11:45:34;;;;;;;14.33;8.60;;;;;;;4.19;65.43;101094.34;1805267;77;21300;-70
2021/03/02 11:48:07;;;;;;;13.72;8.10;;;;;;;4.20;65.44;101072.26;1775240;77;21361;-70
2021/03/02 11:50:42;;;;;;;13.32;8.50;;;;;;;4.17;65.62;101076.74;1775614;77;21268;-66
2021/03/02 11:53:17;;;;;;;17.57;9.70;;;;;;;4.14;65.87;101067.36;1773852;77;21298;-68
2021/03/02 11:55:51;;;;;;;15.80;9.40;;;;;;;4.15;65.98;101060.44;1772705;78;21858;-68
2021/03/02 11:58:29;;;;;;;12.33;7.30;;;;;;;4.17;66.01;101051.67;1769434;78;21897;-69
2021/03/02 12:01:02;;;;;;;12.37;7.95;;;;;;;4.20;66.09;101050.69;1777055;78;21181;-70
2021/03/02 12:03:39;;;;;;;13.98;8.55;;;;;;;4.22;66.06;101042.37;1775319;78;21378;-68
2021/03/02 12:06:13;;;;;;;14.53;8.35;;;;;;;4.19;66.13;101036.87;1781177;78;21272;-69
2021/03/02 12:08:47;;;;;;;11.20;7.70;;;;;;;4.17;66.21;101033.98;1773042;78;21283;-65
2021/03/02 12:11:21;;;;;;;12.10;8.35;;;;;;;4.15;66.37;101035.81;1747055;78;22178;-64
2021/03/02 12:13:55;;;;;;;14.07;9.20;;;;;;;4.13;66.48;101041.54;1775546;78;21145;-70
2021/03/02 12:16:28;;;;;;;15.05;7.60;;;;;;;4.09;66.56;101036.50;1772534;78;21287;-68
2021/03/02 12:19:04;;;;;;;22.42;10.40;;;;;;;4.04;66.68;101038.92;1772554;78;21446;-67
2021/03/02 12:21:41;;;;;;;24.82;13.20;;;;;;;4.05;66.93;101032.84;1771733;78;21253;-62
2021/03/02 12:24:19;;;;;;;18.00;11.25;;;;;;;4.06;67.08;101012.03;1772152;78;21286;-64
2021/03/02 12:26:53;;;;;;;21.70;11.33;;;;;;;4.06;67.12;101022.39;1752994;79;21161;-73
2021/03/02 12:29:27;;;;;;;16.93;8.98;;;;;;;4.06;67.21;101013.77;1748252;79;21272;-62
2021/03/02 12:32:01;;;;;;;16.05;9.05;;;;;;;4.05;67.35;101008.23;1778528;78;21284;-72
2021/03/02 12:34:36;;;;;;;18.55;9.70;;;;;;;4.02;67.33;101000.60;1750072;79;21306;-62
2021/03/02 12:37:10;;;;;;;14.98;8.33;;;;;;;4.01;67.51;100988.09;1714912;81;21222;-61
2021/03/02 12:39:44;;;;;;;15.75;8.35;;;;;;;4.00;67.69;100993.37;1720917;81;21179;-64
2021/03/02 12:42:19;;;;;;;12.45;8.08;;;;;;;4.02;67.74;100978.12;1734997;80;21179;-66
2021/03/02 12:44:52;;;;;;;;;;;;;;;4.03;67.81;100977.23;1731522;81;21254;-69
2021/03/02 12:47:26;;;;;;;12.88;8.28;;;;;;;4.06;67.93;100978.80;1730055;81;20261;-67
2021/03/02 12:50:02;;;;;;;17.23;8.65;;;;;;;4.08;67.94;100971.81;1728247;81;21880;-65
2021/03/02 12:52:39;;;;;;;18.45;9.43;;;;;;;4.11;67.91;100968.23;1732407;81;21285;-61
2021/03/02 12:55:14;;;;;;;16.90;9.38;;;;;;;4.12;67.87;100958.22;1726017;80;21300;-69
2021/03/02 12:57:50;;;;;;;15.50;8.15;;;;;;;4.13;67.87;100954.73;1756788;80;21286;-73
2021/03/02 13:00:26;;;;;;;14.87;7.40;;;;;;;4.12;67.83;100961.66;1786288;78;21274;-69
2021/03/02 13:03:03;;;;;;;17.02;9.15;;;;;;;4.11;67.94;100958.67;1785559;78;21330;-68
2021/03/02 13:05:39;;;;;;;14.60;8.53;;;;;;;4.11;68.08;100950.09;1771934;78;21289;-67
2021/03/02 13:08:15;;;;;;;15.25;8.90;;;;;;;4.07;68.29;100954.58;1778784;78;21883;-70
2021/03/02 13:10:49;;;;;;;18.15;9.63;;;;;;;4.03;68.58;100945.30;1774509;78;21238;-68
2021/03/02 13:13:24;;;;;;;15.18;8.25;;;;;;;4.01;68.81;100945.35;1792376;77;21237;-67
2021/03/02 13:15:58;;;;;;;13.20;8.00;;;;;;;3.99;68.92;100936.83;1779681;79;21295;-67
2021/03/02 13:18:33;;;;;;;15.70;7.85;;;;;;;3.96;69.02;100935.67;1776782;78;22072;-61
2021/03/02 13:21:07;;;;;;;14.28;8.50;;;;;;;3.94;69.10;100915.49;1774589;79;21170;-66
2021/03/02 13:23:40;;;;;;;;;;;;;;;3.87;69.25;100919.31;1791622;77;21186;-74
2021/03/02 13:26:18;;;;;;;16.30;9.78;;;;;;;3.84;69.42;100918.64;1772636;77;20357;-67
2021/03/02 13:28:52;;;;;;;18.62;10.60;;;;;;;3.81;69.66;100908.43;1730114;81;21346;-69
2021/03/02 13:31:25;;;;;;;13.58;7.95;;;;;;;3.80;69.67;100907.59;1777912;79;21327;-69
2021/03/02 13:33:59;;;;;;;12.10;7.25;;;;;;;3.78;69.83;100907.28;1779338;79;21723;-71
2021/03/02 13:36:35;;;;;;;14.47;8.15;;;;;;;3.77;70.01;100902.59;1779607;78;21775;-69
2021/03/02 13:39:15;;;;;;;14.93;8.33;;;;;;;3.78;70.19;100902.10;1772255;79;21274;-69
2021/03/02 13:41:51;;;;;;;13.25;8.33;;;;;;;3.79;70.44;100903.79;1779134;78;21255;-67
2021/03/02 13:44:27;;;;;;;17.37;9.63;;;;;;;3.80;70.56;100886.87;1773770;78;21122;-70
2021/03/02 13:47:01;;;;;;;18.65;9.20;;;;;;;3.79;70.64;100873.56;1787440;77;21301;-71
2021/03/02 13:49:37;;;;;;;21.97;10.03;;;;;;;3.77;70.73;100866.78;1800320;77;21351;-59
2021/03/02 13:52:13;;;;;;;20.08;9.45;;;;;;;3.76;70.91;100865.09;1793239;77;21722;-68
2021/03/02 13:54:47;;;;;;;14.13;8.00;;;;;;;3.75;71.04;100864.25;1792624;77;21235;-67
2021/03/02 13:57:20;;;;;;;;;;;;;;;3.72;71.16;100848.05;1785517;79;21288;-68
2021/03/02 13:59:56;;;;;;;20.43;9.18;;;;;;;3.70;71.31;100861.53;1787242;78;20272;-73
2021/03/02 14:02:32;;;;;;;13.13;7.60;;;;;;;3.67;71.64;100856.50;1779781;78;21233;-71
2021/03/02 14:05:08;;;;;;;13.60;7.40;;;;;;;3.69;71.79;100854.22;1775531;78;21282;-68
2021/03/02 14:07:43;;;;;;;12.55;7.65;;;;;;;3.71;71.96;100854.13;1760615;78;21203;-70
2021/03/02 14:10:20;;;;;;;15.70;8.98;;;;;;;3.73;72.09;100859.61;1733777;80;22643;-71
2021/03/02 14:12:55;;;;;;;13.00;7.53;;;;;;;3.74;72.22;100853.53;1737648;79;21297;-70
2021/03/02 14:15:29;;;;;;;15.58;9.30;;;;;;;3.72;72.34;100854.52;1783807;78;21306;-72
2021/03/02 14:18:03;;;;;;;17.35;8.65;;;;;;;3.70;72.45;100848.59;1754453;79;21158;-76
2021/03/02 14:20:38;;;;;;;16.95;8.80;;;;;;;3.64;72.59;100837.23;1696889;82;21197;-72
2021/03/02 14:23:13;;;;;;;12.70;7.28;;;;;;;3.59;72.82;100834.03;1777315;79;21245;-72
2021/03/02 14:25:48;;;;;;;11.90;7.30;;;;;;;3.56;73.09;100831.62;1786713;78;21293;-68
2021/03/02 14:28:23;;;;;;;81.50;30.43;;;;;;;3.55;73.12;100832.08;1778892;78;21181;-67
2021/03/02 14:30:57;;;;;;;59.35;26.73;;;;;;;3.51;73.35;100838.30;1784616;79;21834;-71
2021/03/02 14:33:31;;;;;;;20.35;10.68;;;;;;;3.41;73.57;100831.94;1711617;82;21315;-69
2021/03/02 14:36:05;;;;;;;20.02;11.55;;;;;;;3.39;73.96;100830.70;1782110;79;21290;-71
2021/03/02 14:38:40;;;;;;;14.15;8.85;;;;;;;3.40;74.17;100835.42;1779502;79;21828;-68
2021/03/02 14:41:16;;;;;;;13.45;7.60;;;;;;;3.42;74.31;100824.53;1766588;79;21275;-66
2021/03/02 14:43:55;;;;;;;17.80;9.48;;;;;;;3.45;74.36;100837.78;1777747;79;21278;-65
2021/03/02 14:46:34;;;;;;;18.80;12.10;;;;;;;3.47;74.54;100840.67;1698075;83;21308;-69
2021/03/02 14:49:24;;;;;;;34.30;18.37;;;;;;;3.48;74.66;100842.36;1772787;78;21760;-68
2021/03/02 14:51:58;;;;;;;21.80;10.95;;;;;;;3.49;74.63;100853.56;1769489;78;21334;-71
2021/03/02 14:54:35;;;;;;;16.10;9.68;;;;;;;3.48;74.74;100832.46;1781488;78;21876;-64
2021/03/02 14:57:16;;;;;;;21.87;11.68;;;;;;;3.48;74.80;100831.16;1792699;78;21324;-72
2021/03/02 14:59:51;;;;;;;19.27;9.80;;;;;;;3.47;74.87;100839.38;1777688;78;21212;-68
2021/03/02 15:02:25;;;;;;;17.98;10.60;;;;;;;3.47;74.90;100838.09;1800705;78;21291;-65
2021/03/02 15:04:58;;;;;;;16.62;10.18;;;;;;;3.45;75.02;100836.03;1776651;79;21212;-69
2021/03/02 15:07:32;;;;;;;16.48;10.85;;;;;;;3.44;75.11;100836.13;1797204;78;21331;-72
2021/03/02 15:10:09;;;;;;;14.47;8.90;;;;;;;3.42;75.25;100842.66;1797202;80;21304;-70
2021/03/02 15:12:43;;;;;;;18.85;9.65;;;;;;;3.41;75.36;100837.12;1795340;80;21241;-69
2021/03/02 15:15:18;;;;;;;15.20;8.28;;;;;;;3.43;75.39;100837.88;1791929;80;21741;-73
2021/03/02 15:17:53;;;;;;;15.58;8.90;;;;;;;3.44;75.55;100840.01;1797240;78;21304;-70
2021/03/02 15:20:28;;;;;;;20.08;12.37;;;;;;;3.45;75.53;100841.66;1755939;79;21320;-71
2021/03/02 15:23:02;;;;;;;21.90;12.73;;;;;;;3.43;75.59;100840.45;1798469;79;21197;-69
2021/03/02 15:25:40;;;;;;;66.57;23.38;;;;;;;3.43;75.59;100830.56;1767202;81;21346;-72
2021/03/02 15:28:16;;;;;;;18.95;9.98;;;;;;;3.43;75.70;100830.56;1759890;80;21329;-71
2021/03/02 15:30:50;;;;;;;18.15;10.70;;;;;;;3.43;75.69;100833.98;1792355;80;21364;-70
2021/03/02 15:33:24;;;;;;;;;;;;;;;3.41;75.72;100843.10;1788982;80;21263;-73
2021/03/02 15:35:59;;;;;;;15.10;8.30;;;;;;;3.43;75.90;100837.03;1781926;80;20230;-73
2021/03/02 15:38:34;;;;;;;18.55;10.82;;;;;;;3.44;75.89;100842.59;1796239;79;21295;-72
2021/03/02 15:41:08;;;;;;;18.62;9.35;;;;;;;3.46;75.95;100839.02;1797234;80;21224;-72
2021/03/02 15:43:43;;;;;;;14.47;9.05;;;;;;;3.49;75.86;100841.43;1799894;80;21275;-69
2021/03/02 15:46:18;;;;;;;14.78;8.73;;;;;;;3.52;75.76;100839.14;1777476;80;21326;-71
2021/03/02 15:48:53;;;;;;;18.25;10.18;;;;;;;3.54;75.57;100843.78;1792158;78;21196;-73
2021/03/02 15:51:27;;;;;;;13.38;8.70;;;;;;;3.54;75.56;100842.04;1769183;79;21976;-70
2021/03/02 15:54:03;;;;;;;14.90;9.58;;;;;;;3.56;75.39;100844.57;1773180;80;21375;-66
2021/03/02 15:56:37;;;;;;;22.05;12.37;;;;;;;3.52;75.36;100838.70;1773502;80;21353;-66
2021/03/02 15:59:11;;;;;;;16.20;8.70;;;;;;;3.50;75.21;100832.77;1795074;80;21340;-66
2021/03/02 16:02:14;;;;;;;14.95;9.25;;;;;;;3.46;75.07;100842.06;1793970;80;21183;-66
2021/03/02 16:05:03;;;;;;;17.92;10.28;;;;;;;3.44;75.12;100836.94;1787729;80;21226;-66
2021/03/02 16:07:42;;;;;;;18.48;11.20;;;;;;;3.42;75.25;100833.59;1737205;81;21888;-66
2021/03/02 16:10:16;;;;;;;18.07;11.83;;;;;;;3.43;75.30;100827.97;1764280;81;21352;-66
2021/03/02 16:12:59;;;;;;;21.23;12.82;;;;;;;3.45;75.26;100824.84;1764612;81;21289;-68
2021/03/02 16:15:41;;;;;;;23.02;11.08;;;;;;;3.42;75.23;100819.36;1764111;81;21387;-67
2021/03/02 16:18:16;;;;;;;21.75;12.63;;;;;;;3.43;75.17;100820.20;1761710;80;21258;-68
2021/03/02 16:20:53;;;;;;;18.62;11.88;;;;;;;3.39;75.23;100813.88;1786406;80;21293;-67
2021/03/02 16:23:28;;;;;;;21.85;12.53;;;;;;;3.36;75.36;100808.03;1787217;80;21196;-66
2021/03/02 16:26:05;;;;;;;22.17;12.40;;;;;;;3.35;75.44;100807.64;1742096;80;21210;-67
2021/03/02 16:28:41;;;;;;;19.37;11.90;;;;;;;3.33;75.62;100801.27;1789033;80;21305;-67
2021/03/02 16:31:16;;;;;;;23.02;12.78;;;;;;;3.34;75.65;100802.11;1788267;80;21317;-67
2021/03/02 16:33:50;;;;;;;35.28;17.95;;;;;;;3.33;75.71;100797.38;1789220;80;21813;-66
2021/03/02 16:36:26;;;;;;;20.50;11.78;;;;;;;3.36;75.75;100793.80;1786855;80;21277;-66